createdAt,value
2022-12-27T00:01:30.415Z,54.45
2022-12-27T00:03:58.151Z,54.35
2022-12-27T00:06:26.397Z,54.16
2022-12-27T00:08:54.212Z,54.30
2022-12-27T00:11:24.483Z,53.91
2022-12-27T00:13:52.308Z,54.19
2022-12-27T00:16:21.394Z,53.79
2022-12-27T00:18:49.807Z,53.55
2022-12-27T00:21:17.990Z,53.93
2022-12-27T00:23:46.867Z,53.52
2022-12-27T00:26:15.489Z,53.69
2022-12-27T00:28:44.766Z,53.43
2022-12-27T00:31:12.643Z,54.01
2022-12-27T00:33:41.034Z,53.40
2022-12-27T00:36:10.135Z,53.96
2022-12-27T00:38:37.923Z,54.09
2022-12-27T00:41:05.917Z,53.96
2022-12-27T00:43:33.631Z,54.16
2022-12-27T00:46:03.109Z,53.60
2022-12-27T00:48:30.884Z,53.67
2022-12-27T00:51:00.661Z,53.13
2022-12-27T00:53:28.403Z,53.96
2022-12-27T00:55:56.091Z,53.76
2022-12-27T00:58:23.809Z,54.21
2022-12-27T01:00:51.802Z,53.80
2022-12-27T01:03:21.038Z,54.05
2022-12-27T01:05:48.904Z,53.33
2022-12-27T01:08:16.631Z,54.12
2022-12-27T01:10:44.360Z,53.42
2022-12-27T01:13:12.016Z,54.25
2022-12-27T01:15:42.513Z,53.92
2022-12-27T01:18:10.175Z,53.52
2022-12-27T01:20:39.976Z,53.79
2022-12-27T01:23:07.609Z,53.76
2022-12-27T01:25:35.308Z,54.04
2022-12-27T01:28:03.084Z,54.08
2022-12-27T01:30:30.879Z,54.91
2022-12-27T01:32:58.530Z,54.72
2022-12-27T01:35:26.300Z,55.00
2022-12-27T01:37:55.319Z,55.48
2022-12-27T01:40:22.970Z,54.64
2022-12-27T01:42:52.407Z,55.41
2022-12-27T01:45:20.497Z,55.10
2022-12-27T01:47:51.557Z,54.50
2022-12-27T01:50:22.868Z,55.10
2022-12-27T01:52:52.926Z,54.69
2022-12-27T01:55:25.045Z,54.84
2022-12-27T01:57:53.435Z,54.96
2022-12-27T02:00:21.308Z,54.45
2022-12-27T02:02:49.363Z,54.88
2022-12-27T02:05:17.379Z,55.12
2022-12-27T02:07:51.617Z,54.88
2022-12-27T02:10:19.407Z,55.14
2022-12-27T02:12:48.501Z,55.52
2022-12-27T02:15:16.355Z,55.46
2022-12-27T02:17:44.058Z,55.57
2022-12-27T02:20:12.889Z,55.01
2022-12-27T02:23:33.562Z,55.23
2022-12-27T02:26:29.420Z,55.36
2022-12-27T02:29:06.833Z,55.40
2022-12-27T02:31:36.666Z,55.69
2022-12-27T02:34:05.004Z,55.84
2022-12-27T02:36:32.972Z,56.09
2022-12-27T02:39:01.863Z,56.18
2022-12-27T02:41:47.097Z,55.85
2022-12-27T02:44:34.080Z,56.64
2022-12-27T02:47:19.343Z,56.14
2022-12-27T02:50:05.103Z,56.74
2022-12-27T02:52:55.576Z,56.94
2022-12-27T02:55:30.559Z,57.07
2022-12-27T02:58:05.548Z,57.04
2022-12-27T03:00:54.202Z,57.06
2022-12-27T03:03:31.641Z,57.12
2022-12-27T03:06:39.346Z,57.37
2022-12-27T03:09:12.675Z,57.76
2022-12-27T03:12:00.779Z,57.46
2022-12-27T03:14:47.925Z,57.27
2022-12-27T03:17:35.805Z,57.27
2022-12-27T03:20:22.514Z,57.68
2022-12-27T03:23:08.071Z,57.66
2022-12-27T03:25:35.988Z,57.45
2022-12-27T03:28:23.488Z,57.25
2022-12-27T03:31:11.400Z,57.94
2022-12-27T03:33:40.865Z,57.27
2022-12-27T03:36:28.419Z,57.30
2022-12-27T03:38:59.073Z,57.19
2022-12-27T03:41:47.167Z,57.51
2022-12-27T03:44:25.203Z,57.27
2022-12-27T03:46:54.511Z,56.81
2022-12-27T03:49:25.839Z,56.90
2022-12-27T03:51:55.333Z,57.00
2022-12-27T03:54:26.405Z,57.24
2022-12-27T03:56:55.902Z,57.01
2022-12-27T03:59:23.773Z,56.68
2022-12-27T04:01:51.517Z,57.53
2022-12-27T04:04:19.777Z,57.26
2022-12-27T04:06:49.044Z,56.54
2022-12-27T04:09:34.273Z,56.91
2022-12-27T04:12:19.742Z,57.00
2022-12-27T04:15:05.146Z,56.83
2022-12-27T04:17:50.210Z,57.04
2022-12-27T04:20:35.549Z,56.60
2022-12-27T04:23:22.100Z,57.60
2022-12-27T04:26:08.057Z,57.48
2022-12-27T04:28:53.372Z,57.97
2022-12-27T04:31:38.775Z,57.50
2022-12-27T04:34:24.108Z,57.00
2022-12-27T04:36:51.837Z,57.40
2022-12-27T04:39:20.966Z,57.79
2022-12-27T04:42:06.294Z,57.36
2022-12-27T04:44:51.880Z,57.56
2022-12-27T04:47:38.348Z,57.14
2022-12-27T04:50:25.541Z,56.85
2022-12-27T04:53:13.141Z,57.43
2022-12-27T04:55:42.155Z,57.15
2022-12-27T04:58:09.906Z,57.03
2022-12-27T05:00:55.261Z,57.58
2022-12-27T05:03:23.580Z,57.20
2022-12-27T05:05:51.266Z,56.87
2022-12-27T05:08:36.625Z,57.21
2022-12-27T05:11:23.550Z,56.93
2022-12-27T05:14:03.331Z,56.80
2022-12-27T05:16:32.179Z,57.30
2022-12-27T05:18:59.972Z,57.77
2022-12-27T05:21:27.698Z,57.11
2022-12-27T05:24:13.127Z,57.38
2022-12-27T05:26:42.212Z,57.62
2022-12-27T05:29:09.923Z,56.64
2022-12-27T05:31:37.648Z,56.63
2022-12-27T05:34:05.971Z,57.09
2022-12-27T05:36:33.676Z,57.31
2022-12-27T05:41:36.622Z,56.82
2022-12-27T05:44:07.613Z,56.63
2022-12-27T05:46:35.925Z,56.34
2022-12-27T05:49:03.879Z,56.06
2022-12-27T05:51:31.780Z,56.10
2022-12-27T05:53:59.617Z,56.85
2022-12-27T05:56:27.425Z,56.33
2022-12-27T05:58:55.408Z,56.19
2022-12-27T06:01:24.739Z,56.43
2022-12-27T06:03:52.667Z,56.50
2022-12-27T06:06:20.660Z,55.86
2022-12-27T06:08:48.462Z,56.34
2022-12-27T06:11:17.247Z,56.03
2022-12-27T06:13:46.436Z,56.17
2022-12-27T06:16:14.311Z,56.08
2022-12-27T06:18:43.834Z,56.55
2022-12-27T06:21:12.814Z,55.57
2022-12-27T06:23:41.449Z,56.09
2022-12-27T06:26:09.790Z,55.76
2022-12-27T06:28:37.687Z,56.09
2022-12-27T06:31:05.646Z,55.69
2022-12-27T06:33:33.596Z,55.96
2022-12-27T06:36:06.903Z,56.09
2022-12-27T06:38:34.768Z,55.55
2022-12-27T06:41:03.045Z,55.81
2022-12-27T06:43:30.927Z,55.74
2022-12-27T06:45:58.998Z,55.38
2022-12-27T06:48:26.932Z,55.79
2022-12-27T06:50:54.791Z,55.92
2022-12-27T06:53:24.189Z,55.99
2022-12-27T06:55:52.130Z,55.85
2022-12-27T06:58:20.035Z,55.82
2022-12-27T07:00:47.858Z,55.57
2022-12-27T07:03:15.930Z,55.79
2022-12-27T07:05:43.941Z,56.21
2022-12-27T07:08:11.877Z,55.33
2022-12-27T07:10:41.317Z,55.89
2022-12-27T07:13:09.284Z,55.84
2022-12-27T07:15:37.175Z,55.69
2022-12-27T07:18:05.258Z,55.96
2022-12-27T07:20:33.388Z,55.92
2022-12-27T07:23:01.500Z,55.81
2022-12-27T07:25:29.451Z,56.02
2022-12-27T07:27:58.767Z,55.77
2022-12-27T07:30:26.690Z,55.98
2022-12-27T07:32:54.558Z,55.47
2022-12-27T07:35:22.491Z,55.75
2022-12-27T07:37:50.435Z,55.83
2022-12-27T07:40:18.549Z,55.38
2022-12-27T07:42:46.419Z,55.53
2022-12-27T07:45:16.026Z,56.19
2022-12-27T07:47:44.011Z,55.52
2022-12-27T07:50:11.913Z,55.81
2022-12-27T07:52:40.547Z,56.11
2022-12-27T07:55:08.915Z,55.97
2022-12-27T07:57:36.740Z,55.76
2022-12-27T08:00:05.349Z,55.62
2022-12-27T08:02:34.819Z,55.69
2022-12-27T08:05:02.713Z,55.90
2022-12-27T08:07:30.560Z,56.17
2022-12-27T08:09:58.565Z,55.60
2022-12-27T08:12:26.449Z,56.22
2022-12-27T08:14:54.330Z,56.19
2022-12-27T08:17:23.754Z,55.70
2022-12-27T08:19:53.614Z,55.03
2022-12-27T08:22:21.579Z,55.59
2022-12-27T08:24:49.591Z,55.54
2022-12-27T08:27:22.017Z,55.46
2022-12-27T08:29:50.088Z,55.29
2022-12-27T08:32:18.083Z,55.31
2022-12-27T08:34:45.911Z,55.05
2022-12-27T08:37:15.945Z,55.68
2022-12-27T08:39:43.810Z,55.06
2022-12-27T08:42:12.783Z,54.69
2022-12-27T08:44:40.772Z,55.24
2022-12-27T08:47:08.709Z,54.68
2022-12-27T08:49:36.577Z,54.35
2022-12-27T08:52:07.057Z,55.06
2022-12-27T08:54:37.134Z,54.63
2022-12-27T08:57:06.480Z,54.48
2022-12-27T08:59:34.935Z,54.68
2022-12-27T09:02:03.218Z,54.04
2022-12-27T09:04:31.186Z,54.29
2022-12-27T09:06:59.055Z,54.11
2022-12-27T09:09:27.030Z,53.67
2022-12-27T09:11:57.283Z,53.65
2022-12-27T09:14:25.152Z,52.40
2022-12-27T09:16:53.084Z,51.29
2022-12-27T09:19:20.913Z,49.21
2022-12-27T09:21:48.721Z,47.64
2022-12-27T09:24:23.816Z,46.23
2022-12-27T09:26:52.134Z,44.42
2022-12-27T09:29:22.010Z,43.44
2022-12-27T09:31:50.446Z,42.38
2022-12-27T09:34:19.365Z,42.88
2022-12-27T09:36:50.065Z,42.50
2022-12-27T09:39:20.822Z,43.26
2022-12-27T09:44:48.610Z,44.69
2022-12-27T09:47:18.169Z,45.07
2022-12-27T09:49:47.056Z,46.16
2022-12-27T09:52:17.548Z,46.23
2022-12-27T09:55:04.395Z,46.38
2022-12-27T09:57:35.913Z,45.62
2022-12-27T10:00:09.761Z,43.21
2022-12-27T10:02:38.199Z,40.78
2022-12-27T10:05:21.279Z,39.36
2022-12-27T10:07:55.841Z,37.56
2022-12-27T10:10:41.004Z,36.25
2022-12-27T10:13:18.456Z,35.79
2022-12-27T10:15:52.259Z,36.10
2022-12-27T10:18:26.096Z,36.11
2022-12-27T10:20:59.667Z,37.06
2022-12-27T10:23:29.833Z,36.64
2022-12-27T10:26:03.331Z,35.86
2022-12-27T10:28:38.263Z,34.60
2022-12-27T10:31:08.102Z,34.59
2022-12-27T10:33:36.151Z,34.86
2022-12-27T10:36:10.973Z,35.62
2022-12-27T10:38:39.641Z,36.08
2022-12-27T10:41:21.198Z,36.45
2022-12-27T10:43:52.580Z,38.36
2022-12-27T10:46:26.336Z,38.75
2022-12-27T10:51:49.275Z,37.90
2022-12-27T10:54:18.914Z,38.31
2022-12-27T10:56:47.611Z,38.31
2022-12-27T10:59:17.004Z,39.10
2022-12-27T11:01:47.215Z,40.04
2022-12-27T11:04:20.667Z,40.67
2022-12-27T11:06:51.656Z,40.27
2022-12-27T11:09:28.178Z,40.82
2022-12-27T11:12:14.647Z,41.48
2022-12-27T11:14:42.691Z,42.02
2022-12-27T11:17:12.136Z,42.70
2022-12-27T11:19:41.729Z,43.50
2022-12-27T11:22:10.733Z,43.66
2022-12-27T11:24:38.795Z,44.26
2022-12-27T11:27:06.651Z,44.91
2022-12-27T11:29:34.722Z,45.27
2022-12-27T11:32:06.649Z,45.81
2022-12-27T11:34:37.983Z,46.61
2022-12-27T11:37:10.793Z,46.25
2022-12-27T11:39:43.120Z,46.83
2022-12-27T11:42:16.475Z,46.81
2022-12-27T11:44:46.491Z,46.81
2022-12-27T11:47:17.209Z,47.26
2022-12-27T11:49:50.276Z,47.33
2022-12-27T11:52:52.181Z,47.30
2022-12-27T11:55:43.456Z,47.29
2022-12-27T11:58:27.047Z,47.18
2022-12-27T12:01:05.744Z,47.35
2022-12-27T12:03:46.734Z,47.56
2022-12-27T12:06:17.784Z,47.32
2022-12-27T12:09:10.022Z,47.17
2022-12-27T12:11:52.992Z,47.36
2022-12-27T12:14:48.688Z,47.31
2022-12-27T12:17:39.427Z,47.20
2022-12-27T12:20:55.497Z,47.24
2022-12-27T12:23:30.793Z,47.42
2022-12-27T12:26:15.346Z,47.67
2022-12-27T12:28:58.719Z,48.18
2022-12-27T12:31:40.931Z,47.91
2022-12-27T12:34:16.787Z,48.34
2022-12-27T12:37:03.751Z,47.97
2022-12-27T12:39:44.275Z,47.98
2022-12-27T12:42:16.655Z,48.55
2022-12-27T12:44:55.239Z,48.35
2022-12-27T12:47:40.202Z,48.58
2022-12-27T12:50:25.851Z,48.80
2022-12-27T12:53:01.830Z,48.58
2022-12-27T12:55:38.871Z,48.54
2022-12-27T12:58:17.567Z,48.44
2022-12-27T13:00:57.816Z,48.83
2022-12-27T13:03:48.355Z,48.72
2022-12-27T13:06:22.959Z,48.75
2022-12-27T13:08:55.252Z,48.93
2022-12-27T13:11:43.415Z,48.64
2022-12-27T13:14:28.382Z,49.18
2022-12-27T13:16:59.537Z,48.90
2022-12-27T13:19:42.928Z,49.24
2022-12-27T13:22:15.590Z,49.01
2022-12-27T13:24:51.579Z,48.91
2022-12-27T13:27:22.630Z,49.40
2022-12-27T13:29:54.855Z,49.64
2022-12-27T13:32:28.272Z,49.09
2022-12-27T13:35:03.403Z,49.35
2022-12-27T13:37:41.291Z,48.99
2022-12-27T13:40:34.135Z,49.51
2022-12-27T13:43:24.689Z,49.53
2022-12-27T13:46:04.224Z,49.47
2022-12-27T13:48:54.962Z,49.37
2022-12-27T13:51:36.129Z,49.59
2022-12-27T13:54:24.774Z,49.63
2022-12-27T13:56:55.779Z,49.51
2022-12-27T13:59:53.639Z,49.80
2022-12-27T14:02:36.516Z,49.67
2022-12-27T14:05:21.619Z,49.44
2022-12-27T14:07:53.888Z,49.67
2022-12-27T14:10:30.639Z,49.34
2022-12-27T14:13:00.019Z,48.93
2022-12-27T14:16:17.510Z,48.92
2022-12-27T14:19:03.066Z,49.63
2022-12-27T14:22:04.133Z,49.00
2022-12-27T14:25:05.937Z,49.41
2022-12-27T14:28:13.120Z,49.25
2022-12-27T14:30:57.266Z,49.37
2022-12-27T14:33:45.250Z,49.70
2022-12-27T14:36:20.500Z,49.64
2022-12-27T14:39:15.127Z,49.96
2022-12-27T14:42:17.591Z,50.14
2022-12-27T14:45:09.269Z,50.21
2022-12-27T14:48:04.071Z,50.19
2022-12-27T14:51:03.551Z,49.85
2022-12-27T14:54:15.500Z,49.75
2022-12-27T14:56:49.543Z,50.07
2022-12-27T14:59:23.606Z,49.97
2022-12-27T15:01:57.384Z,49.72
2022-12-27T15:04:37.982Z,49.77
2022-12-27T15:07:23.526Z,49.32
2022-12-27T15:09:53.216Z,49.86
2022-12-27T15:12:25.243Z,49.64
2022-12-27T15:15:01.131Z,49.30
2022-12-27T15:17:38.163Z,49.32
2022-12-27T15:20:28.225Z,49.43
2022-12-27T15:23:03.235Z,49.53
2022-12-27T15:25:35.850Z,49.27
2022-12-27T15:28:06.690Z,49.29
2022-12-27T15:30:38.142Z,49.42
2022-12-27T15:33:08.574Z,49.93
2022-12-27T15:35:51.512Z,49.28
2022-12-27T15:38:19.297Z,49.57
2022-12-27T15:41:15.779Z,49.77
2022-12-27T15:44:26.977Z,50.04
2022-12-27T15:47:42.621Z,49.67
2022-12-27T15:50:27.223Z,49.81
2022-12-27T15:53:10.451Z,50.06
2022-12-27T15:56:00.410Z,49.91
2022-12-27T15:58:28.561Z,50.17
2022-12-27T16:01:30.299Z,49.25
2022-12-27T16:04:00.786Z,49.72
2022-12-27T16:06:48.767Z,49.89
2022-12-27T16:09:26.414Z,50.00
2022-12-27T16:12:02.199Z,50.10
2022-12-27T16:14:31.110Z,49.75
2022-12-27T16:17:05.384Z,49.94
2022-12-27T16:19:40.876Z,49.68
2022-12-27T16:22:20.216Z,49.32
2022-12-27T16:24:49.491Z,49.51
2022-12-27T16:27:25.428Z,49.61
2022-12-27T16:29:54.563Z,49.49
2022-12-27T16:32:23.690Z,49.98
2022-12-27T16:34:58.549Z,49.63
2022-12-27T16:37:29.264Z,49.10
2022-12-27T16:40:15.014Z,49.44
2022-12-27T16:43:15.291Z,48.97
2022-12-27T16:45:46.953Z,49.29
2022-12-27T16:48:17.355Z,49.75
2022-12-27T16:50:48.748Z,49.59
2022-12-27T16:53:31.440Z,49.18
2022-12-27T16:56:15.058Z,49.53
2022-12-27T16:58:43.138Z,50.16
2022-12-27T17:01:30.095Z,50.20
2022-12-27T17:03:58.324Z,49.83
2022-12-27T17:06:56.991Z,49.80
2022-12-27T17:09:44.307Z,50.35
2022-12-27T17:12:22.851Z,50.00
2022-12-27T17:14:52.117Z,49.86
2022-12-27T17:17:22.601Z,50.46
2022-12-27T17:19:54.244Z,49.90
2022-12-27T17:22:22.061Z,50.12
2022-12-27T17:24:51.155Z,50.55
2022-12-27T17:27:26.277Z,50.32
2022-12-27T17:30:01.721Z,50.49
2022-12-27T17:32:50.469Z,50.57
2022-12-27T17:35:27.138Z,50.73
2022-12-27T17:38:04.070Z,50.21
2022-12-27T17:40:34.530Z,50.66
2022-12-27T17:43:29.540Z,50.78
2022-12-27T17:46:02.618Z,51.06
2022-12-27T17:48:30.974Z,51.15
2022-12-27T17:51:00.866Z,51.01
2022-12-27T17:53:46.025Z,51.38
2022-12-27T17:56:33.958Z,50.98
2022-12-27T17:59:10.869Z,51.88
2022-12-27T18:01:43.188Z,51.26
2022-12-27T18:04:23.856Z,52.63
2022-12-27T18:06:57.120Z,52.20
2022-12-27T18:09:32.303Z,51.84
2022-12-27T18:12:00.295Z,52.00
2022-12-27T18:14:31.996Z,51.93
2022-12-27T18:16:59.994Z,52.17
2022-12-27T18:19:30.219Z,52.40
2022-12-27T18:21:59.900Z,52.10
2022-12-27T18:24:29.302Z,52.25
2022-12-27T18:27:08.141Z,51.85
2022-12-27T18:29:44.923Z,53.01
2022-12-27T18:32:13.381Z,52.53
2022-12-27T18:34:41.944Z,53.08
2022-12-27T18:37:11.294Z,53.62
2022-12-27T18:39:40.399Z,53.57
2022-12-27T18:42:16.828Z,53.50
2022-12-27T18:44:47.809Z,53.35
2022-12-27T18:47:19.147Z,53.62
2022-12-27T20:22:45.476Z,55.66
2022-12-27T20:25:13.487Z,55.35
2022-12-27T20:27:41.185Z,55.01
2022-12-27T20:30:10.500Z,55.06
2022-12-27T20:32:38.348Z,55.24
2022-12-27T20:35:06.839Z,55.75
2022-12-27T20:37:35.599Z,54.72
2022-12-27T20:40:07.353Z,55.09
2022-12-27T20:42:35.069Z,55.66
2022-12-27T20:45:02.734Z,54.97
2022-12-27T20:47:30.325Z,55.57
2022-12-27T20:49:57.968Z,55.50
2022-12-27T20:52:31.126Z,55.55
2022-12-27T20:54:59.300Z,55.76
2022-12-27T20:57:28.346Z,55.87
2022-12-27T20:59:55.990Z,55.67
2022-12-27T21:02:23.734Z,55.74
2022-12-27T21:04:51.453Z,55.70
2022-12-27T21:07:20.215Z,55.10
2022-12-27T21:09:47.914Z,55.63
2022-12-27T21:12:17.076Z,55.22
2022-12-27T21:14:47.235Z,54.66
2022-12-27T21:19:49.221Z,55.04
2022-12-27T21:22:16.798Z,55.63
2022-12-27T21:24:44.613Z,55.37
2022-12-27T21:27:12.175Z,55.13
2022-12-27T21:29:39.860Z,55.10
2022-12-27T21:32:08.777Z,54.68
2022-12-27T21:34:37.305Z,55.59
2022-12-27T21:37:10.015Z,54.61
2022-12-27T21:39:40.574Z,55.27
2022-12-27T21:42:08.372Z,55.09
2022-12-27T21:44:36.862Z,54.98
2022-12-27T21:47:04.711Z,54.77
2022-12-27T21:49:34.591Z,55.18
2022-12-27T21:52:02.264Z,54.86
2022-12-27T21:54:29.848Z,55.24
2022-12-27T21:56:57.581Z,54.98
2022-12-27T21:59:25.311Z,54.62
2022-12-27T22:01:52.964Z,54.46
2022-12-27T22:04:21.082Z,54.54
2022-12-27T22:06:50.182Z,54.94
2022-12-27T22:09:18.898Z,54.25
2022-12-27T22:11:46.520Z,54.22
2022-12-27T22:14:14.200Z,54.85
2022-12-27T22:16:41.830Z,54.16
2022-12-27T22:19:10.368Z,53.92
2022-12-27T22:21:38.479Z,53.83
2022-12-27T22:24:07.997Z,54.16
2022-12-27T22:26:37.760Z,53.95
2022-12-27T22:29:05.538Z,54.24
2022-12-27T22:31:35.292Z,53.64
2022-12-27T22:34:03.220Z,54.12
2022-12-27T22:36:30.842Z,53.86
2022-12-27T22:38:58.933Z,53.41
2022-12-27T22:41:28.525Z,53.83
2022-12-27T22:43:57.032Z,53.48
2022-12-27T22:46:24.699Z,53.05
2022-12-27T22:48:52.799Z,54.09
2022-12-27T22:51:21.459Z,54.00
2022-12-27T22:53:49.130Z,54.02
2022-12-27T22:56:17.358Z,53.11
2022-12-27T22:58:46.455Z,53.90
2022-12-27T23:01:14.334Z,53.26
2022-12-27T23:03:42.164Z,53.89
2022-12-27T23:06:11.057Z,53.59
2022-12-27T23:08:39.017Z,53.34
2022-12-27T23:11:07.814Z,53.07
2022-12-27T23:13:35.582Z,53.88
2022-12-27T23:16:05.010Z,53.17
2022-12-27T23:18:33.107Z,53.03
2022-12-27T23:21:20.656Z,53.64
2022-12-27T23:23:48.525Z,52.75
2022-12-27T23:26:17.038Z,53.49
2022-12-27T23:28:45.557Z,53.15
2022-12-27T23:31:14.950Z,53.67
2022-12-27T23:33:43.039Z,53.34
2022-12-27T23:36:10.836Z,53.33
2022-12-27T23:38:38.410Z,53.31
2022-12-27T23:41:08.016Z,53.07
2022-12-27T23:43:53.661Z,52.73
2022-12-27T23:46:25.183Z,53.97
2022-12-27T23:48:53.055Z,53.08
2022-12-27T23:51:20.649Z,53.59
2022-12-27T23:53:48.343Z,53.27
2022-12-27T23:56:17.089Z,53.68
2022-12-27T23:58:44.909Z,53.46
